fbpx

Weather

Glasgow International Airport – EGPF

METAR:

EGPF 240120Z AUTO VRB02KT 9999 NCD 02/02 Q0995


TAF:

TAF AMD EGPF 232106Z 2321/2418 08005KT 9999 FEW035 TEMPO 2321/2408 0300 FG VV///


Prestwick International Airport – EGPK

METAR:

EGPK 240050Z 00000KT 9999 FEW037 04/02 Q0995


TAF:

TAF EGPK 231659Z 2318/2418 07005KT 9999 FEW035

Call Now ButtonCall us now